sensor_id;sensor_type;location;lat;lon;timestamp;temperature;humidity
4293;DHT22;2160;51.172;6.808;2022-09-23T04:00:41;13.70;99.90
4293;DHT22;2160;51.172;6.808;2022-09-23T04:03:08;13.60;99.90
4293;DHT22;2160;51.172;6.808;2022-09-23T04:05:35;13.70;99.90
4293;DHT22;2160;51.172;6.808;2022-09-23T04:08:02;13.50;99.90
4293;DHT22;2160;51.172;6.808;2022-09-23T04:10:29;13.50;99.90
4293;DHT22;2160;51.172;6.808;2022-09-23T04:12:56;13.50;99.90
4293;DHT22;2160;51.172;6.808;2022-09-23T04:15:23;13.50;99.90
4293;DHT22;2160;51.172;6.808;2022-09-23T04:17:51;13.60;99.90
4293;DHT22;2160;51.172;6.808;2022-09-23T04:20:18;13.70;99.90
4293;DHT22;2160;51.172;6.808;2022-09-23T04:22:45;13.60;99.90
4293;DHT22;2160;51.172;6.808;2022-09-23T04:25:12;13.60;99.90
4293;DHT22;2160;51.172;6.808;2022-09-23T04:27:39;13.60;99.90
4293;DHT22;2160;51.172;6.808;2022-09-23T04:30:07;13.40;99.90
4293;DHT22;2160;51.172;6.808;2022-09-23T04:32:34;13.60;99.90
4293;DHT22;2160;51.172;6.808;2022-09-23T04:35:03;13.60;99.90
4293;DHT22;2160;51.172;6.808;2022-09-23T04:37:30;13.50;99.90
4293;DHT22;2160;51.172;6.808;2022-09-23T04:39:57;13.60;99.90
4293;DHT22;2160;51.172;6.808;2022-09-23T04:42:27;13.60;99.90
4293;DHT22;2160;51.172;6.808;2022-09-23T04:44:54;13.60;99.90
4293;DHT22;2160;51.172;6.808;2022-09-23T04:47:23;13.80;99.90
4293;DHT22;2160;51.172;6.808;2022-09-23T04:49:50;13.50;99.90
4293;DHT22;2160;51.172;6.808;2022-09-23T04:52:18;13.50;99.90
4293;DHT22;2160;51.172;6.808;2022-09-23T04:54:45;13.60;99.90
4293;DHT22;2160;51.172;6.808;2022-09-23T04:57:13;13.50;99.90
4293;DHT22;2160;51.172;6.808;2022-09-23T04:59:40;13.60;99.90
4293;DHT22;2160;51.172;6.808;2022-09-23T05:02:09;13.60;99.90
4293;DHT22;2160;51.172;6.808;2022-09-23T05:04:37;13.60;99.90
4293;DHT22;2160;51.172;6.808;2022-09-23T05:07:04;13.60;99.90
4293;DHT22;2160;51.172;6.808;2022-09-23T05:09:32;13.70;99.90
4293;DHT22;2160;51.172;6.808;2022-09-23T05:11:59;13.60;99.90
4293;DHT22;2160;51.172;6.808;2022-09-23T05:14:26;13.70;99.90
4293;DHT22;2160;51.172;6.808;2022-09-23T05:16:53;13.70;99.90
4293;DHT22;2160;51.172;6.808;2022-09-23T05:19:20;13.70;99.90
4293;DHT22;2160;51.172;6.808;2022-09-23T05:21:47;13.70;99.90
4293;DHT22;2160;51.172;6.808;2022-09-23T05:24:14;13.70;99.90
4293;DHT22;2160;51.172;6.808;2022-09-23T05:26:43;13.60;99.90
4293;DHT22;2160;51.172;6.808;2022-09-23T05:29:10;13.70;99.90
4293;DHT22;2160;51.172;6.808;2022-09-23T05:31:37;13.70;99.90
4293;DHT22;2160;51.172;6.808;2022-09-23T05:34:04;13.70;99.90
4293;DHT22;2160;51.172;6.808;2022-09-23T05:36:33;13.70;99.90
4293;DHT22;2160;51.172;6.808;2022-09-23T05:39:00;13.70;99.90
4293;DHT22;2160;51.172;6.808;2022-09-23T05:41:27;13.70;99.90
4293;DHT22;2160;51.172;6.808;2022-09-23T05:44:01;13.70;99.90
4293;DHT22;2160;51.172;6.808;2022-09-23T05:46:29;13.70;99.90
4293;DHT22;2160;51.172;6.808;2022-09-23T05:49:40;13.70;99.90
4293;DHT22;2160;51.172;6.808;2022-09-23T05:52:53;13.70;99.90
4293;DHT22;2160;51.172;6.808;2022-09-23T05:57:29;13.60;99.90
4293;DHT22;2160;51.172;6.808;2022-09-23T06:02:33;13.60;99.90
4293;DHT22;2160;51.172;6.808;2022-09-23T06:06:03;13.60;99.90
4293;DHT22;2160;51.172;6.808;2022-09-23T06:12:31;13.70;99.90
4293;DHT22;2160;51.172;6.808;2022-09-23T06:15:35;13.80;99.90
4293;DHT22;2160;51.172;6.808;2022-09-23T06:22:00;14.00;99.90
4293;DHT22;2160;51.172;6.808;2022-09-23T06:25:38;14.00;99.90
4293;DHT22;2160;51.172;6.808;2022-09-23T06:28:31;14.00;99.90
4293;DHT22;2160;51.172;6.808;2022-09-23T06:31:18;14.00;99.90
4293;DHT22;2160;51.172;6.808;2022-09-23T06:37:09;14.20;99.90
4293;DHT22;2160;51.172;6.808;2022-09-23T06:39:58;14.20;99.90
4293;DHT22;2160;51.172;6.808;2022-09-23T06:42:47;14.20;99.90
4293;DHT22;2160;51.172;6.808;2022-09-23T06:48:19;14.40;99.90
4293;DHT22;2160;51.172;6.808;2022-09-23T06:51:37;14.30;99.90
4293;DHT22;2160;51.172;6.808;2022-09-23T06:58:23;14.20;99.90
4293;DHT22;2160;51.172;6.808;2022-09-23T07:01:05;14.20;99.90
4293;DHT22;2160;51.172;6.808;2022-09-23T07:03:56;14.20;99.90
4293;DHT22;2160;51.172;6.808;2022-09-23T07:09:23;14.40;99.90
4293;DHT22;2160;51.172;6.808;2022-09-23T07:17:21;14.60;99.90
4293;DHT22;2160;51.172;6.808;2022-09-23T07:23:38;14.80;99.90
4293;DHT22;2160;51.172;6.808;2022-09-23T07:26:30;15.00;99.90
4293;DHT22;2160;51.172;6.808;2022-09-23T07:29:12;14.90;99.90
4293;DHT22;2160;51.172;6.808;2022-09-23T07:32:08;14.80;99.90
4293;DHT22;2160;51.172;6.808;2022-09-23T07:35:26;15.00;99.90
4293;DHT22;2160;51.172;6.808;2022-09-23T07:38:21;14.90;99.90
4293;DHT22;2160;51.172;6.808;2022-09-23T07:41:08;14.80;99.90
4293;DHT22;2160;51.172;6.808;2022-09-23T07:43:51;14.90;99.90
4293;DHT22;2160;51.172;6.808;2022-09-23T07:46:32;15.20;99.90
4293;DHT22;2160;51.172;6.808;2022-09-23T07:49:08;15.20;99.90
4293;DHT22;2160;51.172;6.808;2022-09-23T07:52:09;15.40;99.90
4293;DHT22;2160;51.172;6.808;2022-09-23T07:59:10;15.40;99.90
4293;DHT22;2160;51.172;6.808;2022-09-23T08:02:30;15.50;99.90
4293;DHT22;2160;51.172;6.808;2022-09-23T08:09:17;16.10;99.90
4293;DHT22;2160;51.172;6.808;2022-09-23T08:15:24;15.80;99.90
4293;DHT22;2160;51.172;6.808;2022-09-23T08:19:03;16.00;99.90
4293;DHT22;2160;51.172;6.808;2022-09-23T08:21:33;16.10;99.90
4293;DHT22;2160;51.172;6.808;2022-09-23T08:30:40;16.20;99.90
4293;DHT22;2160;51.172;6.808;2022-09-23T08:34:29;16.40;99.90
4293;DHT22;2160;51.172;6.808;2022-09-23T08:38:10;16.50;99.90
4293;DHT22;2160;51.172;6.808;2022-09-23T08:41:26;16.60;99.90
4293;DHT22;2160;51.172;6.808;2022-09-23T08:44:59;16.70;99.90
4293;DHT22;2160;51.172;6.808;2022-09-23T08:47:41;17.00;99.90
4293;DHT22;2160;51.172;6.808;2022-09-23T08:53:20;17.30;99.90
4293;DHT22;2160;51.172;6.808;2022-09-23T08:55:54;17.00;99.90
4293;DHT22;2160;51.172;6.808;2022-09-23T08:58:42;17.00;99.90
4293;DHT22;2160;51.172;6.808;2022-09-23T09:01:17;17.10;99.90
4293;DHT22;2160;51.172;6.808;2022-09-23T09:03:49;17.20;99.90
4293;DHT22;2160;51.172;6.808;2022-09-23T09:06:25;17.50;99.90
4293;DHT22;2160;51.172;6.808;2022-09-23T09:08:58;17.40;99.90
4293;DHT22;2160;51.172;6.808;2022-09-23T09:11:32;17.30;99.90
4293;DHT22;2160;51.172;6.808;2022-09-23T09:14:04;17.30;99.90
4293;DHT22;2160;51.172;6.808;2022-09-23T09:16:48;17.10;99.90
4293;DHT22;2160;51.172;6.808;2022-09-23T09:26:41;15.60;99.90
4293;DHT22;2160;51.172;6.808;2022-09-23T09:29:21;15.50;99.90
4293;DHT22;2160;51.172;6.808;2022-09-23T09:32:17;16.00;99.90
4293;DHT22;2160;51.172;6.808;2022-09-23T09:38:39;16.90;99.90
4293;DHT22;2160;51.172;6.808;2022-09-23T09:41:15;17.30;99.90
4293;DHT22;2160;51.172;6.808;2022-09-23T09:43:51;17.50;99.90
4293;DHT22;2160;51.172;6.808;2022-09-23T09:46:45;17.60;99.90
4293;DHT22;2160;51.172;6.808;2022-09-23T09:50:02;17.60;99.90
4293;DHT22;2160;51.172;6.808;2022-09-23T09:53:45;17.70;99.90
4293;DHT22;2160;51.172;6.808;2022-09-23T09:56:19;18.20;99.90
4293;DHT22;2160;51.172;6.808;2022-09-23T09:59:08;18.40;99.90
4293;DHT22;2160;51.172;6.808;2022-09-23T11:06:32;20.30;99.90
4293;DHT22;2160;51.172;6.808;2022-09-23T11:14:10;20.50;99.90
4293;DHT22;2160;51.172;6.808;2022-09-23T11:17:35;20.60;99.90
4293;DHT22;2160;51.172;6.808;2022-09-23T11:20:57;20.50;99.10
4293;DHT22;2160;51.172;6.808;2022-09-23T11:24:01;20.90;99.90
4293;DHT22;2160;51.172;6.808;2022-09-23T11:26:51;20.90;99.20
4293;DHT22;2160;51.172;6.808;2022-09-23T11:30:06;21.30;98.80
4293;DHT22;2160;51.172;6.808;2022-09-23T11:33:18;21.10;95.70
4293;DHT22;2160;51.172;6.808;2022-09-23T11:36:30;21.20;91.80
4293;DHT22;2160;51.172;6.808;2022-09-23T11:39:28;21.30;94.50
4293;DHT22;2160;51.172;6.808;2022-09-23T11:43:26;21.50;94.50
4293;DHT22;2160;51.172;6.808;2022-09-23T11:46:39;21.40;94.20
4293;DHT22;2160;51.172;6.808;2022-09-23T11:54:10;21.30;94.00
4293;DHT22;2160;51.172;6.808;2022-09-23T12:17:39;22.20;94.40
4293;DHT22;2160;51.172;6.808;2022-09-23T12:20:33;22.00;93.00
4293;DHT22;2160;51.172;6.808;2022-09-23T12:23:55;21.80;93.20
4293;DHT22;2160;51.172;6.808;2022-09-23T12:26:31;21.60;93.00
4293;DHT22;2160;51.172;6.808;2022-09-23T12:29:16;21.60;93.60
4293;DHT22;2160;51.172;6.808;2022-09-23T12:43:17;21.80;92.70
4293;DHT22;2160;51.172;6.808;2022-09-23T12:46:24;21.90;92.20
4293;DHT22;2160;51.172;6.808;2022-09-23T12:49:50;22.00;94.80
4293;DHT22;2160;51.172;6.808;2022-09-23T12:53:12;22.10;92.90
4293;DHT22;2160;51.172;6.808;2022-09-23T13:03:11;21.60;92.50
4293;DHT22;2160;51.172;6.808;2022-09-23T13:09:42;22.00;91.70
4293;DHT22;2160;51.172;6.808;2022-09-23T13:12:17;21.90;90.10
4293;DHT22;2160;51.172;6.808;2022-09-23T13:14:50;21.90;90.80
4293;DHT22;2160;51.172;6.808;2022-09-23T13:17:29;22.00;90.70
4293;DHT22;2160;51.172;6.808;2022-09-23T13:19:59;22.10;92.20
4293;DHT22;2160;51.172;6.808;2022-09-23T13:25:28;22.20;91.20
4293;DHT22;2160;51.172;6.808;2022-09-23T13:28:25;22.10;90.20
4293;DHT22;2160;51.172;6.808;2022-09-23T13:30:53;21.90;89.20
4293;DHT22;2160;51.172;6.808;2022-09-23T13:33:27;22.00;91.00
4293;DHT22;2160;51.172;6.808;2022-09-23T13:35:59;21.90;90.70
4293;DHT22;2160;51.172;6.808;2022-09-23T13:38:29;22.00;90.70
4293;DHT22;2160;51.172;6.808;2022-09-23T13:44:03;22.10;90.80
4293;DHT22;2160;51.172;6.808;2022-09-23T13:46:41;22.00;91.40
4293;DHT22;2160;51.172;6.808;2022-09-23T13:49:23;22.10;92.50
4293;DHT22;2160;51.172;6.808;2022-09-23T13:51:56;22.10;92.40
4293;DHT22;2160;51.172;6.808;2022-09-23T13:54:29;22.10;91.70
4293;DHT22;2160;51.172;6.808;2022-09-23T13:57:05;22.10;91.70
4293;DHT22;2160;51.172;6.808;2022-09-23T13:59:40;22.20;93.30
4293;DHT22;2160;51.172;6.808;2022-09-23T14:02:10;22.20;92.30
4293;DHT22;2160;51.172;6.808;2022-09-23T14:04:45;22.00;91.20
4293;DHT22;2160;51.172;6.808;2022-09-23T14:07:13;22.00;91.30
4293;DHT22;2160;51.172;6.808;2022-09-23T14:09:45;22.00;90.20
4293;DHT22;2160;51.172;6.808;2022-09-23T14:12:13;21.90;89.60
4293;DHT22;2160;51.172;6.808;2022-09-23T14:14:49;21.90;89.10
4293;DHT22;2160;51.172;6.808;2022-09-23T14:17:18;22.00;86.10
4293;DHT22;2160;51.172;6.808;2022-09-23T14:19:46;22.00;88.30
4293;DHT22;2160;51.172;6.808;2022-09-23T14:22:22;21.80;86.30
4293;DHT22;2160;51.172;6.808;2022-09-23T14:24:50;21.60;84.40
4293;DHT22;2160;51.172;6.808;2022-09-23T14:27:30;21.80;87.10
4293;DHT22;2160;51.172;6.808;2022-09-23T14:30:01;21.80;86.10
4293;DHT22;2160;51.172;6.808;2022-09-23T14:32:28;21.90;85.80
4293;DHT22;2160;51.172;6.808;2022-09-23T14:35:15;21.90;86.10
4293;DHT22;2160;51.172;6.808;2022-09-23T14:37:44;22.00;86.10
4293;DHT22;2160;51.172;6.808;2022-09-23T14:40:32;22.10;85.70
4293;DHT22;2160;51.172;6.808;2022-09-23T14:43:03;22.10;84.00
4293;DHT22;2160;51.172;6.808;2022-09-23T14:45:34;21.90;82.00
4293;DHT22;2160;51.172;6.808;2022-09-23T14:48:05;21.90;82.70
4293;DHT22;2160;51.172;6.808;2022-09-23T14:50:34;21.80;81.80
4293;DHT22;2160;51.172;6.808;2022-09-23T14:53:36;21.80;82.10
4293;DHT22;2160;51.172;6.808;2022-09-23T14:56:16;21.90;83.40
4293;DHT22;2160;51.172;6.808;2022-09-23T14:58:50;21.90;83.20
4293;DHT22;2160;51.172;6.808;2022-09-23T15:01:37;22.00;83.60
4293;DHT22;2160;51.172;6.808;2022-09-23T15:04:16;22.00;84.00
4293;DHT22;2160;51.172;6.808;2022-09-23T15:06:49;22.00;84.20
4293;DHT22;2160;51.172;6.808;2022-09-23T15:09:21;22.00;81.40
4293;DHT22;2160;51.172;6.808;2022-09-23T15:11:55;21.90;82.50
4293;DHT22;2160;51.172;6.808;2022-09-23T15:14:27;21.90;83.00
4293;DHT22;2160;51.172;6.808;2022-09-23T15:17:04;21.80;82.20
4293;DHT22;2160;51.172;6.808;2022-09-23T15:19:33;21.80;81.10
4293;DHT22;2160;51.172;6.808;2022-09-23T15:22:01;21.80;81.30
4293;DHT22;2160;51.172;6.808;2022-09-23T15:24:40;21.80;82.40
4293;DHT22;2160;51.172;6.808;2022-09-23T15:27:24;21.70;83.30
4293;DHT22;2160;51.172;6.808;2022-09-23T15:29:52;21.70;82.50
4293;DHT22;2160;51.172;6.808;2022-09-23T15:32:22;21.70;82.70
4293;DHT22;2160;51.172;6.808;2022-09-23T15:34:49;21.70;82.10
4293;DHT22;2160;51.172;6.808;2022-09-23T15:37:16;21.60;83.50
4293;DHT22;2160;51.172;6.808;2022-09-23T15:39:43;21.50;80.40
4293;DHT22;2160;51.172;6.808;2022-09-23T15:42:10;21.50;81.70
4293;DHT22;2160;51.172;6.808;2022-09-23T15:44:38;21.60;82.70
4293;DHT22;2160;51.172;6.808;2022-09-23T15:47:05;21.70;83.40
4293;DHT22;2160;51.172;6.808;2022-09-23T15:49:40;21.80;83.40
4293;DHT22;2160;51.172;6.808;2022-09-23T15:52:09;21.80;83.10
4293;DHT22;2160;51.172;6.808;2022-09-23T15:54:36;21.80;83.20
4293;DHT22;2160;51.172;6.808;2022-09-23T15:57:04;21.80;82.60
4293;DHT22;2160;51.172;6.808;2022-09-23T15:59:31;21.90;87.40
4293;DHT22;2160;51.172;6.808;2022-09-23T16:02:01;21.90;90.40
4293;DHT22;2160;51.172;6.808;2022-09-23T16:04:32;21.90;90.20
4293;DHT22;2160;51.172;6.808;2022-09-23T16:07:02;21.70;89.60
4293;DHT22;2160;51.172;6.808;2022-09-23T16:09:30;21.60;85.60
4293;DHT22;2160;51.172;6.808;2022-09-23T16:11:57;21.50;86.30
4293;DHT22;2160;51.172;6.808;2022-09-23T16:14:27;21.50;85.50
4293;DHT22;2160;51.172;6.808;2022-09-23T16:16:54;21.60;86.60
4293;DHT22;2160;51.172;6.808;2022-09-23T16:19:22;21.60;89.50
4293;DHT22;2160;51.172;6.808;2022-09-23T16:21:50;21.60;91.50
4293;DHT22;2160;51.172;6.808;2022-09-23T16:24:18;21.50;90.00
4293;DHT22;2160;51.172;6.808;2022-09-23T16:26:47;21.50;91.60
4293;DHT22;2160;51.172;6.808;2022-09-23T16:29:14;21.60;91.80
4293;DHT22;2160;51.172;6.808;2022-09-23T16:31:41;21.60;92.70
4293;DHT22;2160;51.172;6.808;2022-09-23T16:34:08;21.60;93.20
4293;DHT22;2160;51.172;6.808;2022-09-23T16:36:38;21.60;93.90
4293;DHT22;2160;51.172;6.808;2022-09-23T16:39:09;21.60;94.30
4293;DHT22;2160;51.172;6.808;2022-09-23T16:41:38;21.60;95.10
4293;DHT22;2160;51.172;6.808;2022-09-23T16:44:08;21.60;95.50
4293;DHT22;2160;51.172;6.808;2022-09-23T16:46:37;21.50;95.40
4293;DHT22;2160;51.172;6.808;2022-09-23T16:49:05;21.50;95.80
4293;DHT22;2160;51.172;6.808;2022-09-23T16:51:33;21.50;95.80
4293;DHT22;2160;51.172;6.808;2022-09-23T16:54:05;21.50;96.40
4293;DHT22;2160;51.172;6.808;2022-09-23T16:56:38;21.40;96.50
4293;DHT22;2160;51.172;6.808;2022-09-23T16:59:10;21.40;96.80
4293;DHT22;2160;51.172;6.808;2022-09-23T17:01:37;21.30;97.20
4293;DHT22;2160;51.172;6.808;2022-09-23T17:04:22;21.20;97.20
4293;DHT22;2160;51.172;6.808;2022-09-23T17:06:52;21.10;97.40
4293;DHT22;2160;51.172;6.808;2022-09-23T17:09:21;21.10;98.30
4293;DHT22;2160;51.172;6.808;2022-09-23T17:11:56;21.00;98.70
4293;DHT22;2160;51.172;6.808;2022-09-23T17:14:28;20.90;99.00
4293;DHT22;2160;51.172;6.808;2022-09-23T17:16:56;20.90;99.40
4293;DHT22;2160;51.172;6.808;2022-09-23T17:19:24;20.80;99.90
4293;DHT22;2160;51.172;6.808;2022-09-23T17:21:52;20.80;99.90
4293;DHT22;2160;51.172;6.808;2022-09-23T17:24:19;20.70;99.90
4293;DHT22;2160;51.172;6.808;2022-09-23T17:26:46;20.70;99.90
4293;DHT22;2160;51.172;6.808;2022-09-23T17:29:14;20.60;99.90
4293;DHT22;2160;51.172;6.808;2022-09-23T17:31:42;20.60;99.90
4293;DHT22;2160;51.172;6.808;2022-09-23T17:34:09;20.60;99.90
4293;DHT22;2160;51.172;6.808;2022-09-23T17:36:36;20.60;99.90
4293;DHT22;2160;51.172;6.808;2022-09-23T17:39:07;20.60;99.90
4293;DHT22;2160;51.172;6.808;2022-09-23T17:41:34;20.60;99.90
4293;DHT22;2160;51.172;6.808;2022-09-23T17:44:02;20.50;99.90
4293;DHT22;2160;51.172;6.808;2022-09-23T17:46:30;20.40;99.90
4293;DHT22;2160;51.172;6.808;2022-09-23T17:48:57;20.30;99.90
4293;DHT22;2160;51.172;6.808;2022-09-23T17:51:25;20.40;99.90
4293;DHT22;2160;51.172;6.808;2022-09-23T17:53:52;20.30;99.90
4293;DHT22;2160;51.172;6.808;2022-09-23T17:56:20;20.20;99.90
4293;DHT22;2160;51.172;6.808;2022-09-23T17:58:48;20.20;99.90
4293;DHT22;2160;51.172;6.808;2022-09-23T18:01:16;20.20;99.90
4293;DHT22;2160;51.172;6.808;2022-09-23T18:03:46;20.20;99.90
4293;DHT22;2160;51.172;6.808;2022-09-23T18:06:14;20.20;99.90
4293;DHT22;2160;51.172;6.808;2022-09-23T18:08:44;20.20;99.90
4293;DHT22;2160;51.172;6.808;2022-09-23T18:11:16;20.10;99.90
4293;DHT22;2160;51.172;6.808;2022-09-23T18:13:48;19.90;99.90
4293;DHT22;2160;51.172;6.808;2022-09-23T18:16:16;19.90;99.90
4293;DHT22;2160;51.172;6.808;2022-09-23T18:18:47;19.90;99.90
4293;DHT22;2160;51.172;6.808;2022-09-23T18:21:16;19.80;99.90
4293;DHT22;2160;51.172;6.808;2022-09-23T18:23:44;19.70;99.90
4293;DHT22;2160;51.172;6.808;2022-09-23T18:26:14;19.60;99.90
4293;DHT22;2160;51.172;6.808;2022-09-23T18:28:42;19.50;99.90
4293;DHT22;2160;51.172;6.808;2022-09-23T18:31:10;19.40;99.90
4293;DHT22;2160;51.172;6.808;2022-09-23T18:33:38;19.30;99.90
4293;DHT22;2160;51.172;6.808;2022-09-23T18:36:06;19.40;99.90
4293;DHT22;2160;51.172;6.808;2022-09-23T18:38:34;19.40;99.90
4293;DHT22;2160;51.172;6.808;2022-09-23T18:41:01;19.30;99.90
4293;DHT22;2160;51.172;6.808;2022-09-23T18:43:30;19.30;99.90
4293;DHT22;2160;51.172;6.808;2022-09-23T18:45:58;19.20;99.90
4293;DHT22;2160;51.172;6.808;2022-09-23T18:48:26;19.10;99.90
4293;DHT22;2160;51.172;6.808;2022-09-23T18:51:12;19.10;99.90
4293;DHT22;2160;51.172;6.808;2022-09-23T18:53:41;19.00;99.90
4293;DHT22;2160;51.172;6.808;2022-09-23T18:56:10;19.00;99.90
4293;DHT22;2160;51.172;6.808;2022-09-23T18:58:37;19.00;99.90
4293;DHT22;2160;51.172;6.808;2022-09-23T19:01:06;19.10;99.90
4293;DHT22;2160;51.172;6.808;2022-09-23T19:03:33;19.10;99.90
4293;DHT22;2160;51.172;6.808;2022-09-23T19:06:02;19.10;99.90
4293;DHT22;2160;51.172;6.808;2022-09-23T19:08:29;19.10;99.90
4293;DHT22;2160;51.172;6.808;2022-09-23T19:11:00;19.20;99.90
4293;DHT22;2160;51.172;6.808;2022-09-23T19:13:28;19.20;99.90
4293;DHT22;2160;51.172;6.808;2022-09-23T19:15:59;19.10;99.90
4293;DHT22;2160;51.172;6.808;2022-09-23T19:18:28;19.00;99.90
4293;DHT22;2160;51.172;6.808;2022-09-23T19:20:55;18.90;99.90
4293;DHT22;2160;51.172;6.808;2022-09-23T19:23:25;18.80;99.90
4293;DHT22;2160;51.172;6.808;2022-09-23T19:25:54;18.70;99.90
4293;DHT22;2160;51.172;6.808;2022-09-23T19:28:22;18.70;99.90
4293;DHT22;2160;51.172;6.808;2022-09-23T19:30:49;18.70;99.90
4293;DHT22;2160;51.172;6.808;2022-09-23T19:33:17;18.60;99.90
4293;DHT22;2160;51.172;6.808;2022-09-23T19:35:45;18.60;99.90
4293;DHT22;2160;51.172;6.808;2022-09-23T19:38:14;18.60;99.90
4293;DHT22;2160;51.172;6.808;2022-09-23T19:40:42;18.50;99.90
4293;DHT22;2160;51.172;6.808;2022-09-23T19:43:09;18.60;99.90
4293;DHT22;2160;51.172;6.808;2022-09-23T19:45:39;18.60;99.90
4293;DHT22;2160;51.172;6.808;2022-09-23T19:48:07;18.70;99.90
4293;DHT22;2160;51.172;6.808;2022-09-23T19:50:38;18.70;99.90
4293;DHT22;2160;51.172;6.808;2022-09-23T19:53:11;18.70;99.90
4293;DHT22;2160;51.172;6.808;2022-09-23T19:55:41;18.70;99.90
4293;DHT22;2160;51.172;6.808;2022-09-23T19:58:15;18.70;99.90
4293;DHT22;2160;51.172;6.808;2022-09-23T20:00:43;18.70;99.90
4293;DHT22;2160;51.172;6.808;2022-09-23T20:03:10;18.60;99.90
4293;DHT22;2160;51.172;6.808;2022-09-23T20:05:37;18.60;99.90
4293;DHT22;2160;51.172;6.808;2022-09-23T20:08:05;18.50;99.90
4293;DHT22;2160;51.172;6.808;2022-09-23T20:10:32;18.50;99.90
4293;DHT22;2160;51.172;6.808;2022-09-23T20:13:08;18.50;99.90
4293;DHT22;2160;51.172;6.808;2022-09-23T20:15:36;18.50;99.90
4293;DHT22;2160;51.172;6.808;2022-09-23T20:18:07;18.60;99.90
4293;DHT22;2160;51.172;6.808;2022-09-23T20:20:34;18.50;99.90
4293;DHT22;2160;51.172;6.808;2022-09-23T20:23:02;18.60;99.90
4293;DHT22;2160;51.172;6.808;2022-09-23T20:25:31;18.60;99.90
4293;DHT22;2160;51.172;6.808;2022-09-23T20:28:19;18.60;99.90
4293;DHT22;2160;51.172;6.808;2022-09-23T20:30:48;18.50;99.90
4293;DHT22;2160;51.172;6.808;2022-09-23T20:33:20;18.40;99.90
4293;DHT22;2160;51.172;6.808;2022-09-23T20:35:49;18.30;99.90
4293;DHT22;2160;51.172;6.808;2022-09-23T20:38:17;18.40;99.90
4293;DHT22;2160;51.172;6.808;2022-09-23T20:40:53;18.40;99.90
4293;DHT22;2160;51.172;6.808;2022-09-23T20:43:20;18.40;99.90
4293;DHT22;2160;51.172;6.808;2022-09-23T20:45:49;18.40;99.90
4293;DHT22;2160;51.172;6.808;2022-09-23T20:48:17;18.40;99.90
4293;DHT22;2160;51.172;6.808;2022-09-23T20:50:45;18.40;99.90
4293;DHT22;2160;51.172;6.808;2022-09-23T20:53:13;18.50;99.90
4293;DHT22;2160;51.172;6.808;2022-09-23T20:55:47;18.50;99.90
4293;DHT22;2160;51.172;6.808;2022-09-23T20:58:15;18.60;99.90
4293;DHT22;2160;51.172;6.808;2022-09-23T21:00:42;18.60;99.90
4293;DHT22;2160;51.172;6.808;2022-09-23T21:03:10;18.60;99.90
4293;DHT22;2160;51.172;6.808;2022-09-23T21:05:37;18.60;99.90
4293;DHT22;2160;51.172;6.808;2022-09-23T21:08:11;18.60;99.90
4293;DHT22;2160;51.172;6.808;2022-09-23T21:10:38;18.50;99.90
4293;DHT22;2160;51.172;6.808;2022-09-23T21:13:06;18.50;99.90
4293;DHT22;2160;51.172;6.808;2022-09-23T21:15:34;18.40;99.90
4293;DHT22;2160;51.172;6.808;2022-09-23T21:18:01;18.50;99.90
4293;DHT22;2160;51.172;6.808;2022-09-23T21:20:28;18.50;99.90
4293;DHT22;2160;51.172;6.808;2022-09-23T21:22:56;18.50;99.90
4293;DHT22;2160;51.172;6.808;2022-09-23T21:25:24;18.50;99.90
4293;DHT22;2160;51.172;6.808;2022-09-23T21:27:52;18.30;99.90
4293;DHT22;2160;51.172;6.808;2022-09-23T21:30:19;18.40;99.90
4293;DHT22;2160;51.172;6.808;2022-09-23T21:32:47;18.40;99.90
4293;DHT22;2160;51.172;6.808;2022-09-23T21:35:14;18.40;99.90
4293;DHT22;2160;51.172;6.808;2022-09-23T21:37:43;18.30;99.90
4293;DHT22;2160;51.172;6.808;2022-09-23T21:40:11;18.30;99.90
4293;DHT22;2160;51.172;6.808;2022-09-23T21:42:58;18.10;99.90
4293;DHT22;2160;51.172;6.808;2022-09-23T21:45:25;18.20;99.90
4293;DHT22;2160;51.172;6.808;2022-09-23T21:47:52;18.10;99.90
4293;DHT22;2160;51.172;6.808;2022-09-23T21:50:19;18.00;99.90
4293;DHT22;2160;51.172;6.808;2022-09-23T21:52:47;18.00;99.90
4293;DHT22;2160;51.172;6.808;2022-09-23T21:55:16;18.00;99.90
4293;DHT22;2160;51.172;6.808;2022-09-23T21:57:43;18.00;99.90
4293;DHT22;2160;51.172;6.808;2022-09-23T22:00:13;18.00;99.90
4293;DHT22;2160;51.172;6.808;2022-09-23T22:02:40;18.00;99.90
4293;DHT22;2160;51.172;6.808;2022-09-23T22:05:08;18.00;99.90
4293;DHT22;2160;51.172;6.808;2022-09-23T22:07:36;18.10;99.90
4293;DHT22;2160;51.172;6.808;2022-09-23T22:10:03;18.20;99.90
4293;DHT22;2160;51.172;6.808;2022-09-23T22:12:31;18.20;99.90
4293;DHT22;2160;51.172;6.808;2022-09-23T22:14:59;18.20;99.90
4293;DHT22;2160;51.172;6.808;2022-09-23T22:17:27;18.20;99.90
4293;DHT22;2160;51.172;6.808;2022-09-23T22:19:57;18.20;99.90
4293;DHT22;2160;51.172;6.808;2022-09-23T22:22:24;18.20;99.90
4293;DHT22;2160;51.172;6.808;2022-09-23T22:24:51;18.30;99.90
4293;DHT22;2160;51.172;6.808;2022-09-23T22:27:19;18.20;99.90
4293;DHT22;2160;51.172;6.808;2022-09-23T22:29:47;18.20;99.90
4293;DHT22;2160;51.172;6.808;2022-09-23T22:32:38;18.20;99.90
4293;DHT22;2160;51.172;6.808;2022-09-23T22:35:09;18.20;99.90
4293;DHT22;2160;51.172;6.808;2022-09-23T22:37:37;18.30;99.90
4293;DHT22;2160;51.172;6.808;2022-09-23T22:40:06;18.30;99.90
4293;DHT22;2160;51.172;6.808;2022-09-23T22:42:35;18.30;99.90
4293;DHT22;2160;51.172;6.808;2022-09-23T22:45:02;18.30;99.90
4293;DHT22;2160;51.172;6.808;2022-09-23T22:47:31;18.30;99.90
4293;DHT22;2160;51.172;6.808;2022-09-23T22:50:05;18.30;99.90
4293;DHT22;2160;51.172;6.808;2022-09-23T22:52:33;18.40;99.90
4293;DHT22;2160;51.172;6.808;2022-09-23T22:55:00;18.50;99.90
4293;DHT22;2160;51.172;6.808;2022-09-23T22:57:28;18.50;99.90
4293;DHT22;2160;51.172;6.808;2022-09-23T22:59:55;18.40;99.90
